createdAt,value
2024-03-26T00:02:18.408Z,1.40
2024-03-26T00:07:14.220Z,1.20
2024-03-26T00:09:42.505Z,1.80
2024-03-26T00:12:10.088Z,1.50
2024-03-26T00:14:38.219Z,1.20
2024-03-26T00:17:07.477Z,1.40
2024-03-26T00:19:35.416Z,1.70
2024-03-26T00:22:04.130Z,1.60
2024-03-26T00:24:32.915Z,1.90
2024-03-26T00:27:01.304Z,1.20
2024-03-26T00:29:30.531Z,1.60
2024-03-26T00:32:00.913Z,1.40
2024-03-26T00:34:31.323Z,1.60
2024-03-26T00:36:59.932Z,1.80
2024-03-26T00:39:30.190Z,1.20
2024-03-26T00:41:57.653Z,1.70
2024-03-26T00:44:25.090Z,0.80
2024-03-26T00:46:52.112Z,1.70
2024-03-26T00:49:21.418Z,1.30
2024-03-26T00:51:50.394Z,1.10
2024-03-26T00:54:17.833Z,1.30
2024-03-26T00:56:46.775Z,1.90
2024-03-26T00:59:15.252Z,1.90
2024-03-26T01:01:43.904Z,1.40
2024-03-26T01:04:11.627Z,1.60
2024-03-26T01:06:41.397Z,1.70
2024-03-26T01:09:09.384Z,1.50
2024-03-26T01:14:05.076Z,1.30
2024-03-26T01:16:32.551Z,1.80
2024-03-26T01:21:28.735Z,1.50
2024-03-26T01:23:56.882Z,1.60
2024-03-26T01:26:24.875Z,1.60
2024-03-26T01:28:54.807Z,1.40
2024-03-26T01:31:24.655Z,1.60
2024-03-26T01:33:53.511Z,1.80
2024-03-26T01:36:21.626Z,1.60
2024-03-26T01:38:48.988Z,1.70
2024-03-26T01:41:17.579Z,1.70
2024-03-26T01:43:47.798Z,1.50
2024-03-26T01:46:16.337Z,1.30
2024-03-26T01:48:45.066Z,1.60
2024-03-26T01:51:12.427Z,1.90
2024-03-26T01:53:41.302Z,1.70
2024-03-26T01:56:09.987Z,2.10
2024-03-26T01:58:38.556Z,2.10
2024-03-26T02:01:07.684Z,1.30
2024-03-26T02:03:35.822Z,1.80
2024-03-26T02:06:06.308Z,2.10
2024-03-26T02:08:34.097Z,2.10
2024-03-26T02:11:02.031Z,2.40
2024-03-26T02:13:32.469Z,1.90
2024-03-26T02:16:01.568Z,1.90
2024-03-26T02:18:29.191Z,2.30
2024-03-26T02:20:57.999Z,2.20
2024-03-26T02:23:30.009Z,1.90
2024-03-26T02:25:59.061Z,1.80
2024-03-26T02:28:27.169Z,2.30
2024-03-26T02:33:22.176Z,2.30
2024-03-26T02:35:49.709Z,1.80
2024-03-26T02:38:19.887Z,1.40
2024-03-26T02:40:48.885Z,2.00
2024-03-26T02:43:17.165Z,1.60
2024-03-26T02:45:45.258Z,1.40
2024-03-26T02:48:15.455Z,1.90
2024-03-26T02:50:43.434Z,1.80
2024-03-26T02:53:12.729Z,1.80
2024-03-26T02:55:41.531Z,2.00
2024-03-26T02:58:10.786Z,1.40
2024-03-26T03:00:38.526Z,2.50
2024-03-26T03:03:06.368Z,1.80
2024-03-26T03:05:35.090Z,1.90
2024-03-26T03:08:03.845Z,2.10
2024-03-26T03:10:31.752Z,2.00
2024-03-26T03:12:59.811Z,2.30
2024-03-26T03:17:57.503Z,2.70
2024-03-26T03:20:25.225Z,2.40
2024-03-26T03:22:55.066Z,2.30
2024-03-26T03:25:23.024Z,2.70
2024-03-26T03:27:53.544Z,2.00
2024-03-26T03:30:21.769Z,2.10
2024-03-26T03:32:49.671Z,2.20
2024-03-26T03:35:19.828Z,2.10
2024-03-26T03:37:48.831Z,2.50
2024-03-26T03:40:18.425Z,2.70
2024-03-26T03:42:48.093Z,1.20
2024-03-26T03:45:17.492Z,2.50
2024-03-26T03:47:45.976Z,2.00
2024-03-26T03:50:14.383Z,1.90
2024-03-26T03:52:43.771Z,2.30
2024-03-26T03:55:11.242Z,1.70
2024-03-26T03:57:40.038Z,2.60
2024-03-26T04:00:08.988Z,2.40
2024-03-26T04:02:44.236Z,2.50
2024-03-26T04:05:12.497Z,2.60
2024-03-26T04:07:40.576Z,2.70
2024-03-26T04:10:08.837Z,2.20
2024-03-26T04:12:37.887Z,2.50
2024-03-26T04:15:07.467Z,2.40
2024-03-26T04:17:37.175Z,3.00
2024-03-26T04:20:10.166Z,3.40
2024-03-26T04:22:39.922Z,3.30
2024-03-26T04:25:07.767Z,3.40
2024-03-26T04:27:35.994Z,3.70
2024-03-26T04:30:05.449Z,3.30
2024-03-26T04:32:38.054Z,3.30
2024-03-26T04:35:07.207Z,3.70
2024-03-26T04:37:35.381Z,3.10
2024-03-26T04:40:07.087Z,3.40
2024-03-26T04:42:34.844Z,2.90
2024-03-26T04:45:05.014Z,2.60
2024-03-26T04:47:33.353Z,2.50
2024-03-26T04:50:00.884Z,3.40
2024-03-26T04:52:29.219Z,3.50
2024-03-26T04:54:57.222Z,3.40
2024-03-26T04:57:25.235Z,3.90
2024-03-26T04:59:53.366Z,3.10
2024-03-26T05:02:22.271Z,3.60
2024-03-26T05:04:51.792Z,3.00
2024-03-26T05:07:20.124Z,4.00
2024-03-26T05:12:17.006Z,3.60
2024-03-26T05:14:45.542Z,3.90
2024-03-26T05:17:13.948Z,3.60
2024-03-26T05:19:43.089Z,3.60
2024-03-26T05:22:11.266Z,3.60
2024-03-26T05:24:41.048Z,2.80
2024-03-26T05:27:12.214Z,3.30
2024-03-26T05:29:40.385Z,3.30
2024-03-26T05:32:10.667Z,3.50
2024-03-26T05:34:39.754Z,3.70
2024-03-26T05:37:07.776Z,3.60
2024-03-26T05:39:37.151Z,4.40
2024-03-26T05:42:10.840Z,3.80
2024-03-26T05:44:39.963Z,3.70
2024-03-26T05:47:08.850Z,3.50
2024-03-26T05:49:38.423Z,3.40
2024-03-26T05:52:07.105Z,2.90
2024-03-26T05:54:38.948Z,2.70
2024-03-26T05:57:09.760Z,3.20
2024-03-26T05:59:39.064Z,3.50
2024-03-26T06:02:07.951Z,2.60
2024-03-26T06:04:36.635Z,2.80
2024-03-26T06:07:04.053Z,3.70
2024-03-26T06:09:34.901Z,4.00
2024-03-26T06:12:03.441Z,3.70
2024-03-26T06:14:30.691Z,2.70
2024-03-26T06:16:59.064Z,3.10
2024-03-26T06:19:26.574Z,3.60
2024-03-26T06:21:55.556Z,4.20
2024-03-26T06:24:23.415Z,3.70
2024-03-26T06:26:56.228Z,3.20
2024-03-26T06:31:52.665Z,3.90
2024-03-26T06:34:20.308Z,3.00
2024-03-26T06:36:49.727Z,2.80
2024-03-26T06:39:20.731Z,3.10
2024-03-26T06:41:48.076Z,2.60
2024-03-26T06:44:15.243Z,2.70
2024-03-26T06:46:42.355Z,2.50
2024-03-26T06:49:09.675Z,2.40
2024-03-26T06:51:37.595Z,2.20
2024-03-26T06:54:04.739Z,2.60
2024-03-26T06:59:01.728Z,2.40
2024-03-26T07:01:29.685Z,2.40
2024-03-26T07:03:56.773Z,2.60
2024-03-26T07:09:00.195Z,2.60
2024-03-26T07:11:33.870Z,2.30
2024-03-26T07:14:01.492Z,2.40
2024-03-26T07:16:28.672Z,2.40
2024-03-26T07:18:59.444Z,2.50
2024-03-26T07:21:28.105Z,2.80
2024-03-26T07:23:56.221Z,2.60
2024-03-26T07:26:25.281Z,2.40
2024-03-26T07:28:53.808Z,2.70
2024-03-26T07:31:25.799Z,2.30
2024-03-26T07:33:53.609Z,2.30
2024-03-26T07:36:21.873Z,2.90
2024-03-26T07:38:51.407Z,2.80
2024-03-26T07:41:19.852Z,2.70
2024-03-26T07:43:49.736Z,2.50
2024-03-26T07:46:17.031Z,2.70
2024-03-26T07:48:48.313Z,2.60
2024-03-26T07:51:17.593Z,2.70
2024-03-26T07:53:49.734Z,2.60
2024-03-26T07:56:17.198Z,2.40
2024-03-26T07:58:44.450Z,2.60
2024-03-26T08:01:13.281Z,2.70
2024-03-26T08:03:42.452Z,2.80
2024-03-26T08:06:10.763Z,1.90
2024-03-26T08:08:39.655Z,2.10
2024-03-26T08:11:12.556Z,2.50
2024-03-26T08:13:44.094Z,2.20
2024-03-26T08:16:13.748Z,2.10
2024-03-26T08:18:42.290Z,2.00
2024-03-26T08:21:11.538Z,2.20
2024-03-26T08:23:44.727Z,1.40
2024-03-26T08:26:14.337Z,1.90
2024-03-26T08:28:54.894Z,1.70
2024-03-26T08:31:30.887Z,1.90
2024-03-26T08:33:59.461Z,2.40
2024-03-26T08:36:27.309Z,2.40
2024-03-26T08:41:32.297Z,2.00
2024-03-26T08:44:06.542Z,1.90
2024-03-26T08:46:35.763Z,2.40
2024-03-26T08:49:04.735Z,2.00
2024-03-26T08:54:03.461Z,2.00
2024-03-26T08:56:31.927Z,1.80
2024-03-26T08:59:01.271Z,2.00
2024-03-26T09:01:36.016Z,2.50
2024-03-26T09:04:04.656Z,2.10
2024-03-26T09:06:35.467Z,2.90
2024-03-26T09:09:03.603Z,4.30
2024-03-26T09:11:41.096Z,2.20
2024-03-26T09:14:09.052Z,1.90
2024-03-26T09:16:38.238Z,1.60
2024-03-26T09:19:14.632Z,1.90
2024-03-26T09:21:45.133Z,1.60
2024-03-26T09:24:14.485Z,1.40
2024-03-26T09:26:45.375Z,1.50
2024-03-26T09:29:19.135Z,1.60
2024-03-26T09:31:46.954Z,1.40
2024-03-26T09:34:20.794Z,1.80
2024-03-26T09:36:51.771Z,1.80
2024-03-26T09:39:21.159Z,1.80
2024-03-26T09:41:50.127Z,1.70
2024-03-26T09:44:19.166Z,1.60
2024-03-26T09:46:49.871Z,1.70
2024-03-26T09:49:21.202Z,1.30
2024-03-26T09:51:54.418Z,1.70
2024-03-26T09:54:26.457Z,1.10
2024-03-26T09:56:55.744Z,1.80
2024-03-26T09:59:24.476Z,2.10
2024-03-26T10:01:58.260Z,1.40
2024-03-26T10:04:26.937Z,1.50
2024-03-26T10:07:07.647Z,1.40
2024-03-26T10:09:35.634Z,1.50
2024-03-26T10:12:05.718Z,1.10
2024-03-26T10:14:33.555Z,1.20
2024-03-26T10:19:29.978Z,1.30
2024-03-26T10:21:57.315Z,1.20
2024-03-26T10:24:25.040Z,1.50
2024-03-26T10:26:54.038Z,1.40
2024-03-26T10:29:26.383Z,1.30
2024-03-26T10:31:55.793Z,1.30
2024-03-26T10:34:26.145Z,1.40
2024-03-26T10:36:58.437Z,1.20
2024-03-26T10:39:32.398Z,1.20
2024-03-26T10:42:01.461Z,1.20
2024-03-26T10:44:30.117Z,1.30
2024-03-26T10:47:02.633Z,1.40
2024-03-26T10:49:31.173Z,1.40
2024-03-26T10:52:02.759Z,1.50
2024-03-26T10:54:31.980Z,2.30
2024-03-26T10:57:00.453Z,1.20
2024-03-26T10:59:29.170Z,1.30
2024-03-26T11:02:02.300Z,1.60
2024-03-26T11:04:31.088Z,2.00
2024-03-26T11:06:59.850Z,2.30
2024-03-26T11:09:26.900Z,1.40
2024-03-26T11:12:00.918Z,1.70
2024-03-26T11:14:29.830Z,1.50
2024-03-26T11:17:00.832Z,1.40
2024-03-26T11:19:32.629Z,2.00
2024-03-26T11:22:03.897Z,1.70
2024-03-26T11:24:35.530Z,1.90
2024-03-26T11:27:09.116Z,1.70
2024-03-26T11:29:45.631Z,1.60
2024-03-26T11:32:17.246Z,1.60
2024-03-26T11:34:47.007Z,1.90
2024-03-26T11:37:16.671Z,2.00
2024-03-26T11:39:45.914Z,2.20
2024-03-26T11:42:14.459Z,2.30
2024-03-26T11:44:43.598Z,2.90
2024-03-26T11:47:11.227Z,2.40
2024-03-26T11:49:39.446Z,2.30
2024-03-26T11:52:08.037Z,1.90
2024-03-26T11:54:37.651Z,2.00
2024-03-26T11:57:05.521Z,2.40
2024-03-26T11:59:33.811Z,2.50
2024-03-26T12:02:03.317Z,1.90
2024-03-26T12:04:30.563Z,1.70
2024-03-26T12:06:58.773Z,2.20
2024-03-26T12:09:27.867Z,2.30
2024-03-26T12:11:57.614Z,2.00
2024-03-26T12:14:26.312Z,2.60
2024-03-26T12:16:56.565Z,3.10
2024-03-26T12:19:24.445Z,2.20
2024-03-26T12:21:52.186Z,2.30
2024-03-26T12:24:19.909Z,2.20
2024-03-26T12:26:47.540Z,2.20
2024-03-26T12:31:42.286Z,2.00
2024-03-26T12:34:11.743Z,2.10
2024-03-26T12:36:41.455Z,2.00
2024-03-26T12:39:10.869Z,1.90
2024-03-26T12:41:40.100Z,1.80
2024-03-26T12:44:13.386Z,1.50
2024-03-26T12:46:42.131Z,1.60
2024-03-26T12:49:10.605Z,1.70
2024-03-26T12:51:38.443Z,2.00
2024-03-26T12:54:08.896Z,1.70
2024-03-26T12:56:38.205Z,2.00
2024-03-26T12:59:07.037Z,1.80
2024-03-26T13:01:34.874Z,1.90
2024-03-26T13:04:03.880Z,2.00
2024-03-26T13:06:31.921Z,1.70
2024-03-26T13:09:00.495Z,1.70
2024-03-26T13:11:29.620Z,1.80
2024-03-26T13:13:58.076Z,2.10
2024-03-26T13:16:25.189Z,1.80
2024-03-26T13:18:54.261Z,1.70
2024-03-26T13:21:22.632Z,1.70
2024-03-26T13:23:51.367Z,1.90
2024-03-26T13:26:19.570Z,1.80
2024-03-26T13:31:15.890Z,1.90
2024-03-26T13:33:43.374Z,2.10
2024-03-26T13:36:11.307Z,1.60
2024-03-26T13:38:42.362Z,1.90
2024-03-26T13:41:10.859Z,1.60
2024-03-26T13:43:38.262Z,1.70
2024-03-26T13:46:07.575Z,1.60
2024-03-26T13:48:37.277Z,1.90
2024-03-26T13:51:05.069Z,1.60
2024-03-26T13:53:33.750Z,1.60
2024-03-26T13:56:03.198Z,1.30
2024-03-26T13:58:31.779Z,1.50
2024-03-26T14:01:00.267Z,1.40
2024-03-26T14:03:28.774Z,1.70
2024-03-26T14:05:58.844Z,1.90
2024-03-26T14:08:26.629Z,1.90
2024-03-26T14:13:21.941Z,1.80
2024-03-26T14:15:51.447Z,1.70
2024-03-26T14:18:18.821Z,1.60
2024-03-26T14:20:46.130Z,1.40
2024-03-26T14:23:13.650Z,1.50
2024-03-26T14:25:42.324Z,1.30
2024-03-26T14:28:09.811Z,1.70
2024-03-26T14:30:44.259Z,1.70
2024-03-26T14:33:11.596Z,1.50
2024-03-26T14:35:38.732Z,1.60
2024-03-26T14:38:07.838Z,1.80
2024-03-26T14:40:36.304Z,1.80
2024-03-26T14:43:03.796Z,1.90
2024-03-26T14:45:31.452Z,1.70
2024-03-26T14:48:01.171Z,1.40
2024-03-26T14:50:29.550Z,2.80
2024-03-26T14:52:58.978Z,4.60
2024-03-26T14:55:28.755Z,1.70
2024-03-26T14:57:57.048Z,2.10
2024-03-26T15:00:24.823Z,1.60
2024-03-26T15:02:52.013Z,1.30
2024-03-26T15:05:23.014Z,1.70
2024-03-26T15:07:52.625Z,1.90
2024-03-26T15:10:19.882Z,1.30
2024-03-26T15:12:48.811Z,1.10
2024-03-26T15:15:16.459Z,1.90
2024-03-26T15:17:43.628Z,1.60
2024-03-26T15:20:14.041Z,1.80
2024-03-26T15:22:44.482Z,1.10
2024-03-26T15:25:13.503Z,1.50
2024-03-26T15:28:04.462Z,1.10
2024-03-26T15:30:51.487Z,1.80
2024-03-26T15:33:20.044Z,1.70
2024-03-26T15:35:47.489Z,1.40
2024-03-26T15:38:16.592Z,1.60
2024-03-26T15:40:45.596Z,1.30
2024-03-26T15:43:12.881Z,1.70
2024-03-26T15:45:45.223Z,1.40
2024-03-26T15:48:13.872Z,1.70
2024-03-26T15:50:43.325Z,1.50
2024-03-26T15:53:12.023Z,1.60
2024-03-26T15:55:39.706Z,1.90
2024-03-26T15:58:07.868Z,1.50
2024-03-26T16:00:36.448Z,1.60
2024-03-26T16:03:04.133Z,1.60
2024-03-26T16:05:32.554Z,1.40
2024-03-26T16:08:00.425Z,1.30
2024-03-26T16:10:44.691Z,2.10
2024-03-26T16:13:17.398Z,1.60
2024-03-26T16:15:45.999Z,1.70
2024-03-26T16:18:14.760Z,1.60
2024-03-26T16:20:43.437Z,1.50
2024-03-26T16:23:12.728Z,2.10
2024-03-26T16:25:42.591Z,2.00
2024-03-26T16:28:10.987Z,1.60
2024-03-26T16:30:39.535Z,1.50
2024-03-26T16:33:09.339Z,2.00
2024-03-26T16:35:37.455Z,1.70
2024-03-26T16:38:06.474Z,2.30
2024-03-26T16:40:36.254Z,3.10
2024-03-26T16:43:06.814Z,3.20
2024-03-26T16:45:34.711Z,3.60
2024-03-26T16:48:02.805Z,3.10
2024-03-26T16:50:30.707Z,2.00
2024-03-26T16:53:00.600Z,2.00
2024-03-26T16:55:29.292Z,2.10
2024-03-26T16:57:57.653Z,1.90
2024-03-26T17:00:25.124Z,2.00
2024-03-26T17:02:53.375Z,2.20
2024-03-26T17:05:22.559Z,1.90
2024-03-26T17:07:50.978Z,1.50
2024-03-26T17:10:18.534Z,2.30
2024-03-26T17:12:46.518Z,1.50
2024-03-26T17:15:15.274Z,1.90
2024-03-26T17:17:43.242Z,1.50
2024-03-26T17:20:11.938Z,1.40
2024-03-26T17:22:40.769Z,1.60
2024-03-26T17:25:13.621Z,1.10
2024-03-26T17:27:43.401Z,1.00
2024-03-26T17:30:12.038Z,1.40
2024-03-26T17:32:41.218Z,1.40
2024-03-26T17:35:10.125Z,1.80
2024-03-26T17:37:39.226Z,1.70
2024-03-26T17:40:08.494Z,1.80
2024-03-26T17:42:37.226Z,1.80
2024-03-26T17:45:05.432Z,1.70
2024-03-26T17:47:33.579Z,1.10
2024-03-26T17:50:02.003Z,1.70
2024-03-26T17:52:31.461Z,1.90
2024-03-26T17:55:00.841Z,1.70
2024-03-26T17:57:30.824Z,1.40
2024-03-26T17:59:58.948Z,1.60
2024-03-26T18:02:27.182Z,1.80
2024-03-26T18:04:55.821Z,1.20
2024-03-26T18:07:25.752Z,1.20
2024-03-26T18:09:53.757Z,1.90
2024-03-26T18:12:24.023Z,1.00
2024-03-26T18:14:56.425Z,1.50
2024-03-26T18:17:25.752Z,1.20
2024-03-26T18:19:55.773Z,1.00
2024-03-26T18:22:23.717Z,1.40
2024-03-26T18:24:54.974Z,3.00
2024-03-26T18:27:25.242Z,1.90
2024-03-26T18:29:55.421Z,1.10
2024-03-26T18:32:25.058Z,1.10
2024-03-26T18:34:57.386Z,1.30
2024-03-26T18:37:25.315Z,1.30
2024-03-26T18:39:53.879Z,1.60
2024-03-26T18:42:22.238Z,1.30
2024-03-26T18:47:19.197Z,1.70
2024-03-26T18:49:51.429Z,1.60
2024-03-26T18:52:19.987Z,1.60
2024-03-26T18:54:50.822Z,1.20
2024-03-26T18:57:19.947Z,1.50
2024-03-26T18:59:48.195Z,2.20
2024-03-26T19:04:47.534Z,3.30
2024-03-26T19:07:16.182Z,3.70
2024-03-26T19:09:46.139Z,3.60
2024-03-26T19:12:15.475Z,3.30
2024-03-26T19:14:43.765Z,3.00
2024-03-26T19:17:13.556Z,2.80
2024-03-26T19:19:42.085Z,3.20
2024-03-26T19:22:09.743Z,2.90
2024-03-26T19:27:07.168Z,2.70
2024-03-26T19:29:36.522Z,3.60
2024-03-26T19:32:06.613Z,3.70
2024-03-26T19:34:35.295Z,3.90
2024-03-26T19:37:07.258Z,4.00
2024-03-26T19:39:40.286Z,4.20
2024-03-26T19:42:09.045Z,3.70
2024-03-26T19:47:04.471Z,4.10
2024-03-26T19:52:02.853Z,4.00
2024-03-26T19:54:31.631Z,5.00
2024-03-26T19:56:59.513Z,4.30
2024-03-26T19:59:28.266Z,4.70
2024-03-26T20:01:56.690Z,3.60
2024-03-26T20:04:27.107Z,3.70
2024-03-26T20:06:56.988Z,3.80
2024-03-26T20:09:24.996Z,3.50
2024-03-26T20:11:53.982Z,3.30
2024-03-26T20:14:23.566Z,3.80
2024-03-26T20:16:52.868Z,3.80
2024-03-26T20:19:20.280Z,3.70
2024-03-26T20:21:48.617Z,4.30
2024-03-26T20:24:16.894Z,4.60
2024-03-26T20:29:14.637Z,3.20
2024-03-26T20:31:45.045Z,3.40
2024-03-26T20:34:13.200Z,3.10
2024-03-26T20:36:42.118Z,3.00
2024-03-26T20:39:10.271Z,3.10
2024-03-26T20:41:38.275Z,3.30
2024-03-26T20:44:06.267Z,3.20
2024-03-26T20:46:34.151Z,3.80
2024-03-26T20:51:33.443Z,3.10
2024-03-26T20:54:01.006Z,2.70
2024-03-26T20:56:28.592Z,3.20
2024-03-26T20:58:56.548Z,3.70
2024-03-26T21:01:25.001Z,3.90
2024-03-26T21:03:53.819Z,4.10
2024-03-26T21:06:22.538Z,3.30
2024-03-26T21:08:51.583Z,4.30
2024-03-26T21:11:21.744Z,2.50
2024-03-26T21:13:51.651Z,3.80
2024-03-26T21:16:19.808Z,3.20
2024-03-26T21:18:49.008Z,3.50
2024-03-26T21:21:20.365Z,3.10
2024-03-26T21:23:51.167Z,3.00
2024-03-26T21:26:19.644Z,3.00
2024-03-26T21:28:50.222Z,3.10
2024-03-26T21:31:19.217Z,2.80
2024-03-26T21:33:50.561Z,2.60
2024-03-26T21:36:18.897Z,2.30
2024-03-26T21:38:46.921Z,2.30
2024-03-26T21:41:16.034Z,2.70
2024-03-26T21:43:43.544Z,2.30
2024-03-26T21:46:12.244Z,2.30
2024-03-26T21:48:41.808Z,2.20
2024-03-26T21:51:10.349Z,2.40
2024-03-26T21:53:40.776Z,2.30
2024-03-26T21:56:11.149Z,2.20
2024-03-26T21:58:40.598Z,2.00
2024-03-26T22:01:10.892Z,1.80
2024-03-26T22:03:40.779Z,1.90
2024-03-26T22:06:13.523Z,2.10
2024-03-26T22:08:42.398Z,2.50
2024-03-26T22:11:15.003Z,2.60
2024-03-26T22:13:43.033Z,2.30
2024-03-26T22:16:12.096Z,2.90
2024-03-26T22:18:40.050Z,2.50
2024-03-26T22:21:11.245Z,2.70
2024-03-26T22:23:39.248Z,2.70
2024-03-26T22:26:09.166Z,2.70
2024-03-26T22:28:36.889Z,3.20
2024-03-26T22:31:06.435Z,2.50
2024-03-26T22:33:37.262Z,3.10
2024-03-26T22:36:09.506Z,2.90
2024-03-26T22:38:37.670Z,3.00
2024-03-26T22:41:06.105Z,2.80
2024-03-26T22:43:38.155Z,2.90
2024-03-26T22:46:07.989Z,2.50
2024-03-26T22:48:39.879Z,2.50
2024-03-26T22:51:09.767Z,2.40
2024-03-26T22:53:38.064Z,2.80
2024-03-26T22:56:07.188Z,2.90
2024-03-26T22:58:35.692Z,2.50
2024-03-26T23:01:03.109Z,3.10
2024-03-26T23:03:32.503Z,2.60
2024-03-26T23:06:04.890Z,2.40
2024-03-26T23:08:34.794Z,2.50
2024-03-26T23:11:04.109Z,3.00
2024-03-26T23:13:32.649Z,2.50
2024-03-26T23:16:02.765Z,2.20
2024-03-26T23:18:32.063Z,2.50
2024-03-26T23:21:01.217Z,2.10
2024-03-26T23:23:29.174Z,2.70
2024-03-26T23:25:59.216Z,2.40
2024-03-26T23:28:27.263Z,2.10
2024-03-26T23:30:57.670Z,2.40
2024-03-26T23:33:26.070Z,1.80
2024-03-26T23:35:54.735Z,2.80
2024-03-26T23:38:23.494Z,2.90
2024-03-26T23:40:52.082Z,2.30
2024-03-26T23:43:21.904Z,3.00
2024-03-26T23:45:50.338Z,2.40
2024-03-26T23:48:18.305Z,2.60
2024-03-26T23:50:47.971Z,2.40
2024-03-26T23:53:17.684Z,2.70
2024-03-26T23:55:45.065Z,2.20
2024-03-26T23:58:13.038Z,2.80
